sensor_id;sensor_type;location;lat;lon;timestamp;pressure;altitude;pressure_sealevel;temperature;humidity
71666;BME280;59503;53.486;10.196;2024-01-06T00:01:49;100613.22;;;-0.95;100.00
71666;BME280;59503;53.486;10.196;2024-01-06T00:04:15;100604.00;;;-1.03;100.00
71666;BME280;59503;53.486;10.196;2024-01-06T00:06:40;100609.84;;;-1.01;100.00
71666;BME280;59503;53.486;10.196;2024-01-06T00:09:05;100614.38;;;-1.01;100.00
71666;BME280;59503;53.486;10.196;2024-01-06T00:11:31;100615.44;;;-1.02;100.00
71666;BME280;59503;53.486;10.196;2024-01-06T00:13:56;100612.16;;;-0.94;100.00
71666;BME280;59503;53.486;10.196;2024-01-06T00:16:22;100609.41;;;-0.89;100.00
71666;BME280;59503;53.486;10.196;2024-01-06T00:18:48;100615.03;;;-0.91;100.00
71666;BME280;59503;53.486;10.196;2024-01-06T00:21:13;100611.00;;;-0.88;100.00
71666;BME280;59503;53.486;10.196;2024-01-06T00:23:42;100609.78;;;-0.96;100.00
71666;BME280;59503;53.486;10.196;2024-01-06T00:26:09;100614.69;;;-0.84;100.00
71666;BME280;59503;53.486;10.196;2024-01-06T00:28:35;100610.53;;;-0.95;100.00
71666;BME280;59503;53.486;10.196;2024-01-06T00:31:00;100615.38;;;-0.97;100.00
71666;BME280;59503;53.486;10.196;2024-01-06T00:33:26;100623.59;;;-0.94;100.00
71666;BME280;59503;53.486;10.196;2024-01-06T00:35:51;100626.78;;;-0.92;100.00
71666;BME280;59503;53.486;10.196;2024-01-06T00:38:17;100620.16;;;-0.94;100.00
71666;BME280;59503;53.486;10.196;2024-01-06T00:40:42;100623.13;;;-0.96;100.00
71666;BME280;59503;53.486;10.196;2024-01-06T00:43:08;100625.63;;;-0.86;100.00
71666;BME280;59503;53.486;10.196;2024-01-06T00:45:33;100621.22;;;-0.95;100.00
71666;BME280;59503;53.486;10.196;2024-01-06T00:47:59;100617.56;;;-0.99;100.00
71666;BME280;59503;53.486;10.196;2024-01-06T00:50:24;100616.75;;;-1.00;100.00
71666;BME280;59503;53.486;10.196;2024-01-06T00:52:49;100637.50;;;-0.97;100.00
71666;BME280;59503;53.486;10.196;2024-01-06T00:55:20;100625.06;;;-1.01;100.00
71666;BME280;59503;53.486;10.196;2024-01-06T00:57:46;100618.56;;;-0.95;100.00
71666;BME280;59503;53.486;10.196;2024-01-06T01:00:12;100620.63;;;-0.92;100.00
71666;BME280;59503;53.486;10.196;2024-01-06T01:02:38;100621.72;;;-0.93;100.00
71666;BME280;59503;53.486;10.196;2024-01-06T01:05:04;100636.16;;;-0.94;100.00
71666;BME280;59503;53.486;10.196;2024-01-06T01:07:29;100640.63;;;-0.90;100.00
71666;BME280;59503;53.486;10.196;2024-01-06T01:09:56;100637.16;;;-0.90;100.00
71666;BME280;59503;53.486;10.196;2024-01-06T01:12:22;100647.75;;;-0.85;100.00
71666;BME280;59503;53.486;10.196;2024-01-06T01:14:47;100646.19;;;-0.86;100.00
71666;BME280;59503;53.486;10.196;2024-01-06T01:17:12;100655.81;;;-0.90;100.00
71666;BME280;59503;53.486;10.196;2024-01-06T01:19:38;100648.41;;;-0.93;100.00
71666;BME280;59503;53.486;10.196;2024-01-06T01:22:03;100658.50;;;-0.90;100.00
71666;BME280;59503;53.486;10.196;2024-01-06T01:24:29;100671.06;;;-0.91;100.00
71666;BME280;59503;53.486;10.196;2024-01-06T01:26:54;100649.78;;;-0.96;100.00
71666;BME280;59503;53.486;10.196;2024-01-06T01:29:20;100677.53;;;-0.97;100.00
71666;BME280;59503;53.486;10.196;2024-01-06T01:31:46;100674.00;;;-0.92;100.00
71666;BME280;59503;53.486;10.196;2024-01-06T01:34:12;100683.59;;;-0.91;100.00
71666;BME280;59503;53.486;10.196;2024-01-06T01:36:38;100678.03;;;-0.95;100.00
71666;BME280;59503;53.486;10.196;2024-01-06T01:39:03;100684.94;;;-0.94;100.00
71666;BME280;59503;53.486;10.196;2024-01-06T01:41:29;100673.00;;;-0.96;100.00
71666;BME280;59503;53.486;10.196;2024-01-06T01:43:54;100682.94;;;-0.83;100.00
71666;BME280;59503;53.486;10.196;2024-01-06T01:46:27;100681.31;;;-0.79;100.00
71666;BME280;59503;53.486;10.196;2024-01-06T01:48:55;100672.13;;;-0.92;100.00
71666;BME280;59503;53.486;10.196;2024-01-06T01:51:21;100673.91;;;-0.87;100.00
71666;BME280;59503;53.486;10.196;2024-01-06T01:53:47;100683.59;;;-0.91;100.00
71666;BME280;59503;53.486;10.196;2024-01-06T01:56:13;100677.38;;;-0.87;100.00
71666;BME280;59503;53.486;10.196;2024-01-06T01:58:39;100677.69;;;-0.88;100.00
71666;BME280;59503;53.486;10.196;2024-01-06T02:01:06;100687.25;;;-0.87;100.00
71666;BME280;59503;53.486;10.196;2024-01-06T02:03:32;100675.09;;;-0.93;100.00
71666;BME280;59503;53.486;10.196;2024-01-06T02:05:58;100679.41;;;-0.79;100.00
71666;BME280;59503;53.486;10.196;2024-01-06T02:08:24;100687.25;;;-0.87;100.00
71666;BME280;59503;53.486;10.196;2024-01-06T02:10:49;100683.59;;;-0.91;100.00
71666;BME280;59503;53.486;10.196;2024-01-06T02:13:15;100694.78;;;-0.89;100.00
71666;BME280;59503;53.486;10.196;2024-01-06T02:15:41;100701.13;;;-0.85;100.00
71666;BME280;59503;53.486;10.196;2024-01-06T02:18:06;100698.66;;;-0.82;100.00
71666;BME280;59503;53.486;10.196;2024-01-06T02:20:32;100709.91;;;-0.85;100.00
71666;BME280;59503;53.486;10.196;2024-01-06T02:22:58;100708.28;;;-0.81;100.00
71666;BME280;59503;53.486;10.196;2024-01-06T02:25:25;100709.13;;;-0.85;100.00
71666;BME280;59503;53.486;10.196;2024-01-06T02:27:51;100713.69;;;-0.86;100.00
71666;BME280;59503;53.486;10.196;2024-01-06T02:30:16;100704.28;;;-0.83;100.00
71666;BME280;59503;53.486;10.196;2024-01-06T02:32:42;100709.91;;;-0.85;100.00
71666;BME280;59503;53.486;10.196;2024-01-06T02:35:07;100715.47;;;-0.81;100.00
71666;BME280;59503;53.486;10.196;2024-01-06T02:37:33;100715.53;;;-0.86;100.00
71666;BME280;59503;53.486;10.196;2024-01-06T02:39:58;100724.56;;;-0.82;100.00
71666;BME280;59503;53.486;10.196;2024-01-06T02:42:24;100724.84;;;-0.84;100.00
71666;BME280;59503;53.486;10.196;2024-01-06T02:44:50;100720.38;;;-0.88;100.00
71666;BME280;59503;53.486;10.196;2024-01-06T02:47:16;100733.34;;;-0.82;100.00
71666;BME280;59503;53.486;10.196;2024-01-06T02:49:43;100729.63;;;-0.81;100.00
71666;BME280;59503;53.486;10.196;2024-01-06T02:52:08;100731.56;;;-0.86;100.00
71666;BME280;59503;53.486;10.196;2024-01-06T02:54:34;100742.75;;;-0.84;100.00
71666;BME280;59503;53.486;10.196;2024-01-06T02:56:59;100745.13;;;-0.83;100.00
71666;BME280;59503;53.486;10.196;2024-01-06T02:59:24;100744.25;;;-0.78;100.00
71666;BME280;59503;53.486;10.196;2024-01-06T03:01:50;100736.25;;;-0.78;100.00
71666;BME280;59503;53.486;10.196;2024-01-06T03:04:15;100742.16;;;-0.81;100.00
71666;BME280;59503;53.486;10.196;2024-01-06T03:06:41;100749.44;;;-0.87;100.00
71666;BME280;59503;53.486;10.196;2024-01-06T03:09:06;100739.09;;;-0.93;100.00
71666;BME280;59503;53.486;10.196;2024-01-06T03:11:32;100743.28;;;-0.87;100.00
71666;BME280;59503;53.486;10.196;2024-01-06T03:13:58;100747.91;;;-0.93;100.00
71666;BME280;59503;53.486;10.196;2024-01-06T03:16:23;100747.09;;;-0.93;100.00
71666;BME280;59503;53.486;10.196;2024-01-06T03:18:49;100761.59;;;-0.99;100.00
71666;BME280;59503;53.486;10.196;2024-01-06T03:21:18;100763.19;;;-0.98;100.00
71666;BME280;59503;53.486;10.196;2024-01-06T03:23:44;100743.22;;;-1.01;100.00
71666;BME280;59503;53.486;10.196;2024-01-06T03:26:09;100754.72;;;-1.05;100.00
71666;BME280;59503;53.486;10.196;2024-01-06T03:28:35;100747.75;;;-1.01;100.00
71666;BME280;59503;53.486;10.196;2024-01-06T03:31:00;100742.97;;;-1.04;100.00
71666;BME280;59503;53.486;10.196;2024-01-06T03:33:25;100750.13;;;-1.00;100.00
71666;BME280;59503;53.486;10.196;2024-01-06T03:35:51;100770.66;;;-1.00;100.00
71666;BME280;59503;53.486;10.196;2024-01-06T03:38:16;100761.88;;;-1.01;100.00
71666;BME280;59503;53.486;10.196;2024-01-06T03:40:42;100759.16;;;-0.96;100.00
71666;BME280;59503;53.486;10.196;2024-01-06T03:43:07;100769.88;;;-1.01;100.00
71666;BME280;59503;53.486;10.196;2024-01-06T03:45:33;100770.19;;;-1.07;100.00
71666;BME280;59503;53.486;10.196;2024-01-06T03:47:58;100772.81;;;-1.02;100.00
71666;BME280;59503;53.486;10.196;2024-01-06T03:50:23;100775.75;;;-1.04;100.00
71666;BME280;59503;53.486;10.196;2024-01-06T03:52:49;100768.06;;;-1.05;100.00
71666;BME280;59503;53.486;10.196;2024-01-06T03:55:14;100776.91;;;-1.10;100.00
71666;BME280;59503;53.486;10.196;2024-01-06T03:57:41;100775.41;;;-0.97;100.00
71666;BME280;59503;53.486;10.196;2024-01-06T04:00:07;100781.28;;;-0.95;100.00
71666;BME280;59503;53.486;10.196;2024-01-06T04:02:33;100777.44;;;-1.08;100.00
71666;BME280;59503;53.486;10.196;2024-01-06T04:04:59;100791.53;;;-1.07;100.00
71666;BME280;59503;53.486;10.196;2024-01-06T04:07:24;100781.22;;;-1.14;100.00
71666;BME280;59503;53.486;10.196;2024-01-06T04:09:50;100793.72;;;-1.09;100.00
71666;BME280;59503;53.486;10.196;2024-01-06T04:12:15;100799.53;;;-1.07;100.00
71666;BME280;59503;53.486;10.196;2024-01-06T04:14:41;100802.78;;;-1.10;100.00
71666;BME280;59503;53.486;10.196;2024-01-06T04:17:06;100800.63;;;-1.08;100.00
71666;BME280;59503;53.486;10.196;2024-01-06T04:19:31;100800.63;;;-1.08;100.00
71666;BME280;59503;53.486;10.196;2024-01-06T04:21:57;100802.22;;;-1.07;100.00
71666;BME280;59503;53.486;10.196;2024-01-06T04:24:23;100797.44;;;-1.10;100.00
71666;BME280;59503;53.486;10.196;2024-01-06T04:26:49;100797.72;;;-1.12;100.00
71666;BME280;59503;53.486;10.196;2024-01-06T04:29:15;100802.22;;;-1.07;100.00
71666;BME280;59503;53.486;10.196;2024-01-06T04:31:41;100802.25;;;-1.12;100.00
71666;BME280;59503;53.486;10.196;2024-01-06T04:34:06;100803.63;;;-1.15;100.00
71666;BME280;59503;53.486;10.196;2024-01-06T04:36:31;100805.50;;;-1.15;100.00
71666;BME280;59503;53.486;10.196;2024-01-06T04:38:57;100809.72;;;-1.09;100.00
71666;BME280;59503;53.486;10.196;2024-01-06T04:41:22;100815.34;;;-1.11;100.00
71666;BME280;59503;53.486;10.196;2024-01-06T04:43:48;100821.50;;;-1.15;100.00
71666;BME280;59503;53.486;10.196;2024-01-06T04:46:13;100834.25;;;-1.12;100.00
71666;BME280;59503;53.486;10.196;2024-01-06T04:48:42;100830.53;;;-1.11;100.00
71666;BME280;59503;53.486;10.196;2024-01-06T04:51:09;100836.16;;;-1.13;100.00
71666;BME280;59503;53.486;10.196;2024-01-06T04:53:38;100845.53;;;-1.20;100.00
71666;BME280;59503;53.486;10.196;2024-01-06T04:56:03;100846.81;;;-1.13;100.00
71666;BME280;59503;53.486;10.196;2024-01-06T04:58:29;100844.44;;;-1.14;100.00
71666;BME280;59503;53.486;10.196;2024-01-06T05:00:54;100851.69;;;-1.20;100.00
71666;BME280;59503;53.486;10.196;2024-01-06T05:03:20;100851.34;;;-1.13;100.00
71666;BME280;59503;53.486;10.196;2024-01-06T05:05:45;100854.63;;;-1.21;100.00
71666;BME280;59503;53.486;10.196;2024-01-06T05:08:11;100862.81;;;-1.13;100.00
71666;BME280;59503;53.486;10.196;2024-01-06T05:10:36;100861.69;;;-1.07;100.00
71666;BME280;59503;53.486;10.196;2024-01-06T05:13:02;100855.00;;;-1.04;100.00
71666;BME280;59503;53.486;10.196;2024-01-06T05:15:28;100860.34;;;-1.04;100.00
71666;BME280;59503;53.486;10.196;2024-01-06T05:17:53;100858.78;;;-1.10;100.00
71666;BME280;59503;53.486;10.196;2024-01-06T05:20:19;100867.03;;;-1.07;100.00
71666;BME280;59503;53.486;10.196;2024-01-06T05:22:44;100864.97;;;-1.15;100.00
71666;BME280;59503;53.486;10.196;2024-01-06T05:25:10;100871.38;;;-1.16;100.00
71666;BME280;59503;53.486;10.196;2024-01-06T05:27:35;100874.78;;;-1.10;100.00
71666;BME280;59503;53.486;10.196;2024-01-06T05:30:01;100877.78;;;-1.17;100.00
71666;BME280;59503;53.486;10.196;2024-01-06T05:32:27;100876.88;;;-1.07;100.00
71666;BME280;59503;53.486;10.196;2024-01-06T05:34:52;100887.06;;;-1.09;100.00
71666;BME280;59503;53.486;10.196;2024-01-06T05:37:18;100885.75;;;-1.12;100.00
71666;BME280;59503;53.486;10.196;2024-01-06T05:39:43;100882.31;;;-1.17;100.00
71666;BME280;59503;53.486;10.196;2024-01-06T05:42:10;100886.06;;;-1.18;100.00
71666;BME280;59503;53.486;10.196;2024-01-06T05:44:40;100894.25;;;-1.10;100.00
71666;BME280;59503;53.486;10.196;2024-01-06T05:47:05;100886.06;;;-1.18;100.00
71666;BME280;59503;53.486;10.196;2024-01-06T05:49:31;100901.25;;;-1.19;100.00
71666;BME280;59503;53.486;10.196;2024-01-06T05:51:57;100897.63;;;-1.28;100.00
71666;BME280;59503;53.486;10.196;2024-01-06T05:54:23;100911.19;;;-1.24;100.00
71666;BME280;59503;53.486;10.196;2024-01-06T05:56:48;100913.81;;;-1.19;100.00
71666;BME280;59503;53.486;10.196;2024-01-06T05:59:14;100926.59;;;-1.16;100.00
71666;BME280;59503;53.486;10.196;2024-01-06T06:01:39;100929.81;;;-1.19;100.00
71666;BME280;59503;53.486;10.196;2024-01-06T06:04:05;100926.09;;;-1.23;100.00
71666;BME280;59503;53.486;10.196;2024-01-06T06:06:31;100937.34;;;-1.27;100.00
71666;BME280;59503;53.486;10.196;2024-01-06T06:08:58;100940.25;;;-1.23;100.00
71666;BME280;59503;53.486;10.196;2024-01-06T06:11:23;100951.16;;;-1.19;100.00
71666;BME280;59503;53.486;10.196;2024-01-06T06:13:48;100956.00;;;-1.27;100.00
71666;BME280;59503;53.486;10.196;2024-01-06T06:16:14;100950.72;;;-1.32;100.00
71666;BME280;59503;53.486;10.196;2024-01-06T06:18:40;100963.44;;;-1.23;100.00
71666;BME280;59503;53.486;10.196;2024-01-06T06:21:07;100968.25;;;-1.26;100.00
71666;BME280;59503;53.486;10.196;2024-01-06T06:23:35;100975.19;;;-1.24;100.00
71666;BME280;59503;53.486;10.196;2024-01-06T06:26:07;100973.25;;;-1.19;100.00
71666;BME280;59503;53.486;10.196;2024-01-06T06:28:33;100982.03;;;-1.13;100.00
71666;BME280;59503;53.486;10.196;2024-01-06T06:30:59;100984.16;;;-1.15;100.00
71666;BME280;59503;53.486;10.196;2024-01-06T06:33:26;100976.72;;;-1.18;100.00
71666;BME280;59503;53.486;10.196;2024-01-06T06:35:52;100989.00;;;-1.23;100.00
71666;BME280;59503;53.486;10.196;2024-01-06T06:38:17;101000.53;;;-1.27;100.00
71666;BME280;59503;53.486;10.196;2024-01-06T06:40:42;101000.28;;;-1.31;100.00
71666;BME280;59503;53.486;10.196;2024-01-06T06:43:08;101009.84;;;-1.24;100.00
71666;BME280;59503;53.486;10.196;2024-01-06T06:45:34;101007.69;;;-1.23;100.00
71666;BME280;59503;53.486;10.196;2024-01-06T06:47:59;100996.53;;;-1.24;100.00
71666;BME280;59503;53.486;10.196;2024-01-06T06:50:25;101005.06;;;-1.28;100.00
71666;BME280;59503;53.486;10.196;2024-01-06T06:52:50;101006.38;;;-1.25;100.00
71666;BME280;59503;53.486;10.196;2024-01-06T06:55:15;101010.34;;;-1.23;100.00
71666;BME280;59503;53.486;10.196;2024-01-06T06:57:41;101003.44;;;-1.23;100.00
71666;BME280;59503;53.486;10.196;2024-01-06T07:00:07;101011.72;;;-1.25;100.00
71666;BME280;59503;53.486;10.196;2024-01-06T07:02:33;101018.34;;;-1.23;100.00
71666;BME280;59503;53.486;10.196;2024-01-06T07:04:59;101019.97;;;-1.21;100.00
71666;BME280;59503;53.486;10.196;2024-01-06T07:07:24;101028.53;;;-1.24;100.00
71666;BME280;59503;53.486;10.196;2024-01-06T07:09:50;101035.47;;;-1.29;100.00
71666;BME280;59503;53.486;10.196;2024-01-06T07:12:15;101037.59;;;-1.31;100.00
71666;BME280;59503;53.486;10.196;2024-01-06T07:14:40;101057.31;;;-1.27;100.00
71666;BME280;59503;53.486;10.196;2024-01-06T07:17:06;101054.97;;;-1.33;100.00
71666;BME280;59503;53.486;10.196;2024-01-06T07:19:32;101060.53;;;-1.30;100.00
71666;BME280;59503;53.486;10.196;2024-01-06T07:21:57;101062.69;;;-1.32;100.00
71666;BME280;59503;53.486;10.196;2024-01-06T07:24:22;101053.59;;;-1.31;100.00
71666;BME280;59503;53.486;10.196;2024-01-06T07:26:48;101063.22;;;-1.30;100.00
71666;BME280;59503;53.486;10.196;2024-01-06T07:29:13;101062.97;;;-1.33;100.00
71666;BME280;59503;53.486;10.196;2024-01-06T07:31:39;101073.91;;;-1.35;100.00
71666;BME280;59503;53.486;10.196;2024-01-06T07:34:04;101081.56;;;-1.23;100.00
71666;BME280;59503;53.486;10.196;2024-01-06T07:36:31;101078.63;;;-1.21;100.00
71666;BME280;59503;53.486;10.196;2024-01-06T07:38:57;101085.03;;;-1.28;100.00
71666;BME280;59503;53.486;10.196;2024-01-06T07:41:22;101073.84;;;-1.24;100.00
71666;BME280;59503;53.486;10.196;2024-01-06T07:43:47;101072.75;;;-1.23;100.00
71666;BME280;59503;53.486;10.196;2024-01-06T07:46:13;101082.91;;;-1.26;100.00
71666;BME280;59503;53.486;10.196;2024-01-06T07:48:38;101091.44;;;-1.23;100.00
71666;BME280;59503;53.486;10.196;2024-01-06T07:51:04;101096.75;;;-1.23;100.00
71666;BME280;59503;53.486;10.196;2024-01-06T07:53:29;101101.84;;;-1.27;100.00
71666;BME280;59503;53.486;10.196;2024-01-06T07:55:55;101103.69;;;-1.28;100.00
71666;BME280;59503;53.486;10.196;2024-01-06T07:58:20;101109.81;;;-1.22;100.00
71666;BME280;59503;53.486;10.196;2024-01-06T08:00:47;101096.81;;;-1.34;100.00
71666;BME280;59503;53.486;10.196;2024-01-06T08:03:13;101115.44;;;-1.23;100.00
71666;BME280;59503;53.486;10.196;2024-01-06T08:05:38;101118.06;;;-1.18;100.00
71666;BME280;59503;53.486;10.196;2024-01-06T08:08:07;101112.22;;;-1.20;100.00
71666;BME280;59503;53.486;10.196;2024-01-06T08:10:32;101117.53;;;-1.20;100.00
71666;BME280;59503;53.486;10.196;2024-01-06T08:12:58;101123.44;;;-1.23;100.00
71666;BME280;59503;53.486;10.196;2024-01-06T08:15:24;101138.63;;;-1.24;100.00
71666;BME280;59503;53.486;10.196;2024-01-06T08:17:49;101140.19;;;-1.13;100.00
71666;BME280;59503;53.486;10.196;2024-01-06T08:20:15;101141.00;;;-1.23;100.00
71666;BME280;59503;53.486;10.196;2024-01-06T08:22:46;101148.50;;;-1.19;100.00
71666;BME280;59503;53.486;10.196;2024-01-06T08:25:11;101151.69;;;-1.23;100.00
71666;BME280;59503;53.486;10.196;2024-01-06T08:27:38;101159.44;;;-1.21;100.00
71666;BME280;59503;53.486;10.196;2024-01-06T08:30:04;101155.97;;;-1.27;100.00
71666;BME280;59503;53.486;10.196;2024-01-06T08:32:30;101163.69;;;-1.20;100.00
71666;BME280;59503;53.486;10.196;2024-01-06T08:34:55;101181.00;;;-1.17;100.00
71666;BME280;59503;53.486;10.196;2024-01-06T08:37:20;101171.41;;;-1.18;100.00
71666;BME280;59503;53.486;10.196;2024-01-06T08:39:46;101187.91;;;-1.11;100.00
71666;BME280;59503;53.486;10.196;2024-01-06T08:42:11;101192.75;;;-1.18;100.00
71666;BME280;59503;53.486;10.196;2024-01-06T08:44:37;101205.81;;;-1.17;100.00
71666;BME280;59503;53.486;10.196;2024-01-06T08:47:02;101188.78;;;-1.26;100.00
71666;BME280;59503;53.486;10.196;2024-01-06T08:49:28;101197.53;;;-1.20;100.00
71666;BME280;59503;53.486;10.196;2024-01-06T08:51:54;101199.16;;;-1.19;100.00
71666;BME280;59503;53.486;10.196;2024-01-06T08:54:20;101200.44;;;-1.12;100.00
71666;BME280;59503;53.486;10.196;2024-01-06T08:56:45;101204.69;;;-1.01;100.00
71666;BME280;59503;53.486;10.196;2024-01-06T08:59:10;101193.25;;;-1.11;100.00
71666;BME280;59503;53.486;10.196;2024-01-06T09:01:36;101215.41;;;-1.11;100.00
71666;BME280;59503;53.486;10.196;2024-01-06T09:04:03;101214.03;;;-1.08;100.00
71666;BME280;59503;53.486;10.196;2024-01-06T09:06:28;101207.63;;;-1.07;100.00
71666;BME280;59503;53.486;10.196;2024-01-06T09:08:54;101226.31;;;-1.12;100.00
71666;BME280;59503;53.486;10.196;2024-01-06T09:11:19;101215.88;;;-1.04;100.00
71666;BME280;59503;53.486;10.196;2024-01-06T09:13:44;101223.63;;;-1.07;100.00
71666;BME280;59503;53.486;10.196;2024-01-06T09:16:12;101241.53;;;-1.08;100.00
71666;BME280;59503;53.486;10.196;2024-01-06T09:18:38;101243.63;;;-1.05;100.00
71666;BME280;59503;53.486;10.196;2024-01-06T09:21:03;101230.28;;;-1.05;100.00
71666;BME280;59503;53.486;10.196;2024-01-06T09:23:29;101247.56;;;-0.92;100.00
71666;BME280;59503;53.486;10.196;2024-01-06T09:25:56;101246.00;;;-0.93;100.00
71666;BME280;59503;53.486;10.196;2024-01-06T09:28:21;101265.19;;;-0.91;100.00
71666;BME280;59503;53.486;10.196;2024-01-06T09:30:47;101261.19;;;-0.94;100.00
71666;BME280;59503;53.486;10.196;2024-01-06T09:33:13;101266.47;;;-0.79;100.00
71666;BME280;59503;53.486;10.196;2024-01-06T09:35:41;101267.56;;;-0.80;100.00
71666;BME280;59503;53.486;10.196;2024-01-06T09:38:07;101277.94;;;-0.78;100.00
71666;BME280;59503;53.486;10.196;2024-01-06T09:40:33;101267.00;;;-0.82;100.00
71666;BME280;59503;53.486;10.196;2024-01-06T09:43:00;101280.34;;;-0.77;100.00
71666;BME280;59503;53.486;10.196;2024-01-06T09:45:28;101281.94;;;-0.76;100.00
71666;BME280;59503;53.486;10.196;2024-01-06T09:47:54;101282.75;;;-0.80;100.00
71666;BME280;59503;53.486;10.196;2024-01-06T09:50:21;101284.38;;;-0.84;100.00
71666;BME280;59503;53.486;10.196;2024-01-06T09:52:47;101285.44;;;-0.85;100.00
71666;BME280;59503;53.486;10.196;2024-01-06T09:55:29;101283.31;;;-0.88;100.00
71666;BME280;59503;53.486;10.196;2024-01-06T09:57:54;101284.44;;;-0.94;100.00
71666;BME280;59503;53.486;10.196;2024-01-06T10:00:20;101288.13;;;-0.90;100.00
71666;BME280;59503;53.486;10.196;2024-01-06T10:02:49;101293.97;;;-0.83;100.00
71666;BME280;59503;53.486;10.196;2024-01-06T10:05:16;101291.06;;;-0.87;100.00
71666;BME280;59503;53.486;10.196;2024-01-06T10:07:45;101288.66;;;-0.88;100.00
71666;BME280;59503;53.486;10.196;2024-01-06T10:10:12;101300.94;;;-0.82;100.00
71666;BME280;59503;53.486;10.196;2024-01-06T10:12:38;101308.13;;;-0.83;100.00
71666;BME280;59503;53.486;10.196;2024-01-06T10:15:05;101309.19;;;-0.84;100.00
71666;BME280;59503;53.486;10.196;2024-01-06T10:17:32;101312.66;;;-0.83;100.00
71666;BME280;59503;53.486;10.196;2024-01-06T10:19:57;101315.09;;;-0.92;100.00
71666;BME280;59503;53.486;10.196;2024-01-06T10:22:23;101316.94;;;-0.92;100.00
71666;BME280;59503;53.486;10.196;2024-01-06T10:24:49;101314.25;;;-0.87;100.00
71666;BME280;59503;53.486;10.196;2024-01-06T10:27:16;101326.56;;;-0.91;100.00
71666;BME280;59503;53.486;10.196;2024-01-06T10:29:41;101316.94;;;-0.87;100.00
71666;BME280;59503;53.486;10.196;2024-01-06T10:32:08;101339.88;;;-0.81;100.00
71666;BME280;59503;53.486;10.196;2024-01-06T10:34:33;101329.72;;;-0.79;100.00
71666;BME280;59503;53.486;10.196;2024-01-06T10:37:02;101336.13;;;-0.85;100.00
71666;BME280;59503;53.486;10.196;2024-01-06T10:39:28;101337.78;;;-0.89;100.00
71666;BME280;59503;53.486;10.196;2024-01-06T10:41:54;101335.38;;;-0.91;100.00
71666;BME280;59503;53.486;10.196;2024-01-06T10:44:21;101341.22;;;-0.89;100.00
71666;BME280;59503;53.486;10.196;2024-01-06T10:46:48;101345.69;;;-0.64;100.00
71666;BME280;59503;53.486;10.196;2024-01-06T10:49:14;101344.28;;;-0.47;100.00
71666;BME280;59503;53.486;10.196;2024-01-06T10:51:40;101349.88;;;-0.43;100.00
71666;BME280;59503;53.486;10.196;2024-01-06T10:54:06;101341.06;;;-0.44;100.00
71666;BME280;59503;53.486;10.196;2024-01-06T10:56:37;101327.00;;;-0.59;100.00
71666;BME280;59503;53.486;10.196;2024-01-06T10:59:07;101343.81;;;-0.69;100.00
71666;BME280;59503;53.486;10.196;2024-01-06T11:01:33;101348.91;;;-0.62;100.00
71666;BME280;59503;53.486;10.196;2024-01-06T11:04:00;101340.41;;;-0.74;100.00
71666;BME280;59503;53.486;10.196;2024-01-06T11:06:26;101347.59;;;-0.75;100.00
71666;BME280;59503;53.486;10.196;2024-01-06T11:11:30;101352.69;;;-0.83;100.00
71666;BME280;59503;53.486;10.196;2024-01-06T11:16:47;101354.78;;;-0.75;100.00
71666;BME280;59503;53.486;10.196;2024-01-06T11:22:31;101355.84;;;-0.71;100.00
71666;BME280;59503;53.486;10.196;2024-01-06T11:25:05;101353.75;;;-0.74;100.00
71666;BME280;59503;53.486;10.196;2024-01-06T11:27:31;101352.69;;;-0.83;100.00
71666;BME280;59503;53.486;10.196;2024-01-06T11:30:03;101355.63;;;-0.90;100.00
71666;BME280;59503;53.486;10.196;2024-01-06T11:32:39;101347.91;;;-0.91;100.00
71666;BME280;59503;53.486;10.196;2024-01-06T11:35:11;101353.78;;;-0.84;100.00
71666;BME280;59503;53.486;10.196;2024-01-06T11:37:51;101348.75;;;-1.01;100.00
71666;BME280;59503;53.486;10.196;2024-01-06T11:40:24;101360.19;;;-0.95;100.00
71666;BME280;59503;53.486;10.196;2024-01-06T11:45:29;101354.84;;;-1.00;100.00
71666;BME280;59503;53.486;10.196;2024-01-06T11:47:57;101355.38;;;-0.98;100.00
71666;BME280;59503;53.486;10.196;2024-01-06T11:50:28;101351.63;;;-0.97;100.00
71666;BME280;59503;53.486;10.196;2024-01-06T11:52:54;101356.72;;;-0.91;100.00
71666;BME280;59503;53.486;10.196;2024-01-06T11:55:20;101351.94;;;-1.04;100.00
71666;BME280;59503;53.486;10.196;2024-01-06T11:57:46;101345.25;;;-0.96;100.00
71666;BME280;59503;53.486;10.196;2024-01-06T12:00:12;101356.47;;;-0.94;100.00
71666;BME280;59503;53.486;10.196;2024-01-06T12:02:41;101350.56;;;-0.86;100.00
71666;BME280;59503;53.486;10.196;2024-01-06T12:05:13;101361.78;;;-0.89;100.00
71666;BME280;59503;53.486;10.196;2024-01-06T12:07:41;101365.75;;;-0.82;100.00
71666;BME280;59503;53.486;10.196;2024-01-06T12:10:08;101367.88;;;-0.84;100.00
71666;BME280;59503;53.486;10.196;2024-01-06T12:12:33;101368.94;;;-0.75;100.00
71666;BME280;59503;53.486;10.196;2024-01-06T12:14:58;101358.53;;;-0.76;100.00
71666;BME280;59503;53.486;10.196;2024-01-06T12:17:29;101378.31;;;-0.82;100.00
71666;BME280;59503;53.486;10.196;2024-01-06T12:19:55;101364.97;;;-0.82;100.00
71666;BME280;59503;53.486;10.196;2024-01-06T12:22:20;101363.91;;;-0.91;100.00
71666;BME280;59503;53.486;10.196;2024-01-06T12:24:49;101383.13;;;-0.94;100.00
71666;BME280;59503;53.486;10.196;2024-01-06T12:27:16;101378.56;;;-0.84;100.00
71666;BME280;59503;53.486;10.196;2024-01-06T12:29:42;101369.53;;;-0.98;100.00
71666;BME280;59503;53.486;10.196;2024-01-06T12:32:09;101366.31;;;-0.95;100.00
71666;BME280;59503;53.486;10.196;2024-01-06T12:34:35;101379.41;;;-0.98;100.00
71666;BME280;59503;53.486;10.196;2024-01-06T12:37:01;101386.56;;;-0.89;100.00